Nortonville, Kansas
Current Conditions -  °F | °C
As of 10:52 AM on Friday 28 Nov 2014 (Local Time) from KLWC Reporting Station
Clear Clear  
Wind Chill: 10°   Ceiling: Unl
Heat Index: 10°   Visibility: 10mi
Dew Point: -2°   Wind: 17mph
Humidity: 44%   Direction: 210°SSW
Pressure: 29.94"   Gusts: NA
Location:  39.42°N, 95.33°W
Report Text: KLWC 281652Z AUTO 21015KT 10SM CLR 10/M02 A2994 RMK AO2 SLP143 T01001017
Loading
Personal Weather Stations






























Interactive Weather Map New forecast layout! Learn more

10-Day Weather Forecast

Advertisements
Track Severe Weather on mobile